Malczyce, Poland
Current Conditions -  °F | °C
As of 7:30 PM on Monday 24 Nov 2014 (Local Time) from EPWR Reporting Station
Light Rain Light Rain  
Wind Chill: 38°   Ceiling: 600
Heat Index: 43°   Visibility: 1.5mi
Dew Point: 41°   Wind: 8mph
Humidity: 93%   Direction: 250°WSW
Pressure: 30.21"   Gusts: NA
Location:  51.22°N, 16.48°E
Report Text: EPWR 241730Z 25007KT 2500 -RA BR BKN006 06/05 Q1023
Loading
Personal Weather Stations






























Interactive Weather Map New forecast layout! Learn more

10-Day Weather Forecast

Advertisements
Track Severe Weather on mobile